Hlavní strana
METAR-TAF:

METAR-TAF

Letiště :

Sevilla, Španělsko

zeměpisná šířka: 37-25N, zeměpisná délka: 005-54W, výška: 34 m

Aktuální stav počasí

Zpráva byla vytvořena před 19 minutami, v 02:30 UTC
Severovýchodní vítr 5 kt
Teplota 19°C
Vlhkost vzduchu 60%
Tlak 1019 hPa
Viditelnost 10 km a více
Žádná oblačnost pod 1500 m, nevyskytují se cumulonimby.

METAR: LEZL 260230Z AUTO 04005KT CAVOK 19/11 Q1019

Čas: 04:49 (02:49 UTC)

Předpověď počasí

Zpráva byla vytvořena před 49 minutami, v 02:00 UTC
Předpověď platná od 26 v 03 UTC do 27 v 03 UTC
vítr z různých směrů 2 kt
Viditelnost 10 km a více
Žádná oblačnost pod 1500 m, nevyskytují se cumulonimby.
Změna
od 26 v 04 UTC do 26 v 06 UTC
Severovýchodní vítr 12 kt

TAF: LEZL 260200Z 2603/2703 VRB02KT CAVOK TX35/2616Z TN21/2606Z BECMG 2604/2606 05012KT

Stav a předpovědi počasí z více než 4 000 letišť (zprávy METAR a TAF).

Červené a žluté tečky na mapě představují dostupné meteorologické stanice.

Když kurzor umístíte na tečku, zobrazí se název stanice.

Pak kliknutím zobrazíte stav a předpověď počasí.

Chcete-li změnit mapu, kliknutím na zelené tlačítko se znaménkem +mapu přiblížíte, kliknutím na zelené tlačítko se znaménkem – mapu oddálíte a kliknutím na zelené šipky přejdete na sousední mapy.


METAR-TAF: